Portada
METAR-TAF:

METAR-TAF

Aeropuertos :

Zaragoza, España

Aeropuerto de Zaragoza

latitud: 41-40N, longitud: 001-01W, altitud: 263 m

Observación

El informe se hizo hace 26 minutos, a las 08:00 UTC
Viento 10 kt del este
Temperatura 21°C
Humedad 69%
Presión 1019 hPa
Visibilidad 10 km o más
Escasas nubes a una altura de 5000 ft

METAR: LEZG 280800Z 09010KT 9999 FEW050 21/15 Q1019

Hora: 10:26 (08:26 UTC)

Pronóstico

El informe se hizo hace 3 horas y 26 minutos, a las 05:00 UTC
Pronóstico válido del 28 a las 06 UTC al 29 a las 06 UTC
Viento 10 kt del este-sureste
Visibilidad 10 km o más
Escasas nubes a una altura de 5000 ft
Temporalmente
del 28 a las 10 UTC al 28 a las 20 UTC
Viento 20 kt del este-sureste con ráfagas de 35 kt

TAF: LEZG 280500Z 2806/2906 11010KT 9999 FEW050 TX33/2814Z TN18/2906Z TEMPO 2810/2820 11020G35KT

Observaciones y pronósticos meteorológicos de más de 4000 aeropuertos (mensajes METAR y TAF).

Los puntos amarillos y rojos representan las estaciones disponibles.

Ponga el ratón en el punto deseado para ver el nombre de la estación.

Haga clic para ver las observaciones y los pronósticos meteorológicos.

Para cambiar el mapa : haga clic en los botones verdes con una cruz de color negro para hacer un zoom, en el botón verde con un guión para alejar o en las flechas verdes para mapas adyacentes.


METAR-TAF: